Time;durP1;ratioP1;P1;durP2;ratioP2;P2;SDS_P1;SDS_P2;PMS_P1;PMS_P2;Temp;Humidity;BMP_temperature;BMP_pressure;BME280_temperature;BME280_humidity;BME280_pressure;Samples;Min_cycle;Max_cycle;Signal;HPM_P1;HPM_P2
2022/04/03 00:00:32;;;;;;;27.90;18.00;;;;;;;;;;5073659;28;20436;-71
2022/04/03 00:03:00;;;;;;;30.97;17.40;;;;;;;;;;5073769;28;20996;-71
2022/04/03 00:05:27;;;;;;;27.33;16.33;;;;;;;;;;5073835;28;20456;-71
2022/04/03 00:07:54;;;;;;;26.77;17.50;;;;;;;;;;5073558;28;20480;-72
2022/04/03 00:10:22;;;;;;;27.70;18.00;;;;;;;;;;5073766;28;20481;-71
2022/04/03 00:12:50;;;;;;;39.77;20.00;;;;;;;;;;5073370;28;20459;-71
2022/04/03 00:15:19;;;;;;;25.00;17.40;;;;;;;;;;5073702;28;20584;-71
2022/04/03 00:17:47;;;;;;;30.50;17.33;;;;;;;;;;5073562;28;21029;-71
2022/04/03 00:20:16;;;;;;;25.43;17.73;;;;;;;;;;5073504;28;20456;-71
2022/04/03 00:22:48;;;;;;;29.20;18.00;;;;;;;;;;5073198;28;20956;-71
2022/04/03 00:25:15;;;;;;;22.87;16.37;;;;;;;;;;5073518;28;20444;-71
2022/04/03 00:27:42;;;;;;;35.17;20.23;;;;;;;;;;5073148;28;20488;-71
2022/04/03 00:30:10;;;;;;;26.30;17.37;;;;;;;;;;5072923;28;20436;-72
2022/04/03 00:32:38;;;;;;;28.80;18.73;;;;;;;;;;5073160;28;20456;-71
2022/04/03 00:35:06;;;;;;;22.10;15.73;;;;;;;;;;5073420;28;20459;-72
2022/04/03 00:37:33;;;;;;;28.30;17.57;;;;;;;;;;5073322;28;20462;-71
2022/04/03 00:40:00;;;;;;;27.17;17.53;;;;;;;;;;5073446;28;20936;-71
2022/04/03 00:42:28;;;;;;;25.77;15.77;;;;;;;;;;5073405;28;20532;-72
2022/04/03 00:44:55;;;;;;;24.73;17.13;;;;;;;;;;5072964;28;20486;-71
2022/04/03 00:47:22;;;;;;;26.57;15.70;;;;;;;;;;5073248;28;20941;-71
2022/04/03 00:49:51;;;;;;;25.67;15.00;;;;;;;;;;5073368;28;20432;-71
2022/04/03 00:52:18;;;;;;;24.03;16.03;;;;;;;;;;5073242;28;20517;-71
2022/04/03 00:54:47;;;;;;;21.93;16.10;;;;;;;;;;5073338;28;20467;-71
2022/04/03 00:57:14;;;;;;;22.77;15.00;;;;;;;;;;5073270;28;21014;-72
2022/04/03 00:59:42;;;;;;;24.93;17.10;;;;;;;;;;5073140;28;20494;-72
2022/04/03 01:02:10;;;;;;;23.40;16.50;;;;;;;;;;5073002;28;20459;-71
2022/04/03 01:04:38;;;;;;;25.87;15.43;;;;;;;;;;5073073;28;20483;-71
2022/04/03 01:07:06;;;;;;;25.17;15.27;;;;;;;;;;5073077;28;20451;-71
2022/04/03 01:09:33;;;;;;;26.30;16.33;;;;;;;;;;5073059;28;20472;-71
2022/04/03 01:12:01;;;;;;;22.23;14.90;;;;;;;;;;5072757;28;20448;-71
2022/04/03 01:14:31;;;;;;;21.50;15.07;;;;;;;;;;5073122;28;20929;-71
2022/04/03 01:16:58;;;;;;;24.33;15.60;;;;;;;;;;5073028;28;20459;-71
2022/04/03 01:19:25;;;;;;;27.57;16.60;;;;;;;;;;5072866;28;20833;-71
2022/04/03 01:21:52;;;;;;;23.50;14.40;;;;;;;;;;5072904;28;20468;-71
2022/04/03 01:24:21;;;;;;;24.23;14.10;;;;;;;;;;5072903;28;20487;-71
2022/04/03 01:26:50;;;;;;;20.57;13.23;;;;;;;;;;5072927;28;20968;-71
2022/04/03 01:29:17;;;;;;;22.70;14.70;;;;;;;;;;5072986;28;20825;-71
2022/04/03 01:31:44;;;;;;;24.20;16.50;;;;;;;;;;5072675;28;20444;-71
2022/04/03 01:34:11;;;;;;;27.20;16.33;;;;;;;;;;5072917;28;20440;-71
2022/04/03 01:36:39;;;;;;;22.20;14.03;;;;;;;;;;5072878;28;20447;-71
2022/04/03 01:39:06;;;;;;;19.63;13.27;;;;;;;;;;5072730;28;20475;-71
2022/04/03 01:41:33;;;;;;;25.27;16.90;;;;;;;;;;5074896;28;20470;-71
2022/04/03 01:44:02;;;;;;;22.10;15.60;;;;;;;;;;5076421;28;20893;-72
2022/04/03 01:46:29;;;;;;;22.53;15.53;;;;;;;;;;5075940;28;20447;-71
2022/04/03 01:48:56;;;;;;;19.50;13.67;;;;;;;;;;5075926;28;20467;-71
2022/04/03 01:51:23;;;;;;;19.50;13.10;;;;;;;;;;5076291;28;20455;-71
2022/04/03 01:53:50;;;;;;;18.20;13.00;;;;;;;;;;5076208;28;20797;-72
2022/04/03 01:56:17;;;;;;;27.50;15.27;;;;;;;;;;5075914;28;20446;-71
2022/04/03 01:58:44;;;;;;;24.40;13.97;;;;;;;;;;5076709;28;20554;-71
2022/04/03 02:01:13;;;;;;;25.37;13.70;;;;;;;;;;5076038;28;20477;-71
2022/04/03 02:03:40;;;;;;;25.80;16.63;;;;;;;;;;5075960;28;20987;-71
2022/04/03 02:06:07;;;;;;;19.10;13.70;;;;;;;;;;5076026;28;20793;-71
2022/04/03 02:08:34;;;;;;;22.40;14.10;;;;;;;;;;5075647;28;20479;-71
2022/04/03 02:11:02;;;;;;;22.80;14.70;;;;;;;;;;5075834;28;20458;-71
2022/04/03 02:13:29;;;;;;;20.87;12.70;;;;;;;;;;5075938;28;20523;-71
2022/04/03 02:15:56;;;;;;;20.60;14.10;;;;;;;;;;5075487;28;20447;-71
2022/04/03 02:18:24;;;;;;;22.73;14.27;;;;;;;;;;5075716;28;20470;-71
2022/04/03 02:20:52;;;;;;;26.43;15.30;;;;;;;;;;5075818;28;20448;-71
2022/04/03 02:23:20;;;;;;;19.10;13.20;;;;;;;;;;5075314;28;20538;-71
2022/04/03 02:25:49;;;;;;;23.60;14.90;;;;;;;;;;5075370;28;20447;-72
2022/04/03 02:28:16;;;;;;;17.17;12.03;;;;;;;;;;5075899;28;20510;-71
2022/04/03 02:30:44;;;;;;;20.23;13.77;;;;;;;;;;5075588;28;20455;-71
2022/04/03 02:33:11;;;;;;;20.27;11.93;;;;;;;;;;5075544;28;20452;-71
2022/04/03 02:35:39;;;;;;;25.37;10.67;;;;;;;;;;5075444;28;20444;-72
2022/04/03 02:38:07;;;;;;;20.90;13.47;;;;;;;;;;5075635;28;21015;-71
2022/04/03 02:40:34;;;;;;;24.20;14.70;;;;;;;;;;5075497;28;20455;-72
2022/04/03 02:43:02;;;;;;;23.93;15.20;;;;;;;;;;5075444;28;20466;-71
2022/04/03 02:45:29;;;;;;;24.80;15.43;;;;;;;;;;5075360;28;20471;-72
2022/04/03 02:47:57;;;;;;;24.73;15.80;;;;;;;;;;5075341;28;20478;-71
2022/04/03 02:50:24;;;;;;;23.00;15.40;;;;;;;;;;5075437;28;20860;-72
2022/04/03 02:52:54;;;;;;;21.60;13.33;;;;;;;;;;5074653;28;20455;-71
2022/04/03 02:55:22;;;;;;;21.33;14.13;;;;;;;;;;5075263;28;20531;-71
2022/04/03 02:57:49;;;;;;;24.43;14.00;;;;;;;;;;5074815;28;20475;-72
2022/04/03 03:00:17;;;;;;;26.93;15.80;;;;;;;;;;5075243;28;20443;-71
2022/04/03 03:02:44;;;;;;;21.00;14.17;;;;;;;;;;5075136;28;21002;-72
2022/04/03 03:05:14;;;;;;;21.27;14.80;;;;;;;;;;5074659;28;20479;-71
2022/04/03 03:07:41;;;;;;;31.07;15.30;;;;;;;;;;5074910;28;20451;-71
2022/04/03 03:10:10;;;;;;;26.50;16.43;;;;;;;;;;5074962;28;20916;-71
2022/04/03 03:12:37;;;;;;;21.43;13.70;;;;;;;;;;5074496;28;20459;-71
2022/04/03 03:15:05;;;;;;;21.87;14.57;;;;;;;;;;5074559;28;20452;-71
2022/04/03 03:17:33;;;;;;;23.50;15.27;;;;;;;;;;5074415;28;20455;-71
2022/04/03 03:20:00;;;;;;;21.73;14.43;;;;;;;;;;5074731;28;20527;-71
2022/04/03 03:22:27;;;;;;;28.40;15.83;;;;;;;;;;5074207;28;20472;-71
2022/04/03 03:24:54;;;;;;;25.30;15.90;;;;;;;;;;5074592;28;20483;-71
2022/04/03 03:27:22;;;;;;;22.20;15.03;;;;;;;;;;5074292;28;20458;-71
2022/04/03 03:29:50;;;;;;;24.13;14.77;;;;;;;;;;5074559;28;20432;-71
2022/04/03 03:32:17;;;;;;;26.90;16.30;;;;;;;;;;5074444;28;20451;-71
2022/04/03 03:34:44;;;;;;;23.27;14.83;;;;;;;;;;5074417;28;20450;-71
2022/04/03 03:37:11;;;;;;;25.03;16.73;;;;;;;;;;5074335;28;20474;-71
2022/04/03 03:39:38;;;;;;;22.33;14.60;;;;;;;;;;5074222;28;20476;-71
2022/04/03 03:42:05;;;;;;;21.83;14.97;;;;;;;;;;5074324;28;20455;-71
2022/04/03 03:44:34;;;;;;;25.30;15.33;;;;;;;;;;5074147;28;21022;-71
2022/04/03 03:47:01;;;;;;;23.40;15.97;;;;;;;;;;5074185;28;20452;-71
2022/04/03 03:49:28;;;;;;;24.23;16.00;;;;;;;;;;5073716;28;20468;-71
2022/04/03 03:51:55;;;;;;;23.50;14.47;;;;;;;;;;5074093;28;20825;-71
2022/04/03 03:54:23;;;;;;;22.27;15.73;;;;;;;;;;5073984;28;20470;-71
2022/04/03 03:56:50;;;;;;;20.70;14.47;;;;;;;;;;5074084;28;20901;-71
2022/04/03 03:59:17;;;;;;;25.13;15.60;;;;;;;;;;5074014;28;20472;-71
2022/04/03 04:01:46;;;;;;;24.43;15.60;;;;;;;;;;5073923;28;20456;-71
2022/04/03 04:04:13;;;;;;;25.37;16.10;;;;;;;;;;5072625;28;20468;-71
2022/04/03 04:06:41;;;;;;;26.83;16.20;;;;;;;;;;5073647;28;20447;-71
2022/04/03 04:09:08;;;;;;;22.83;15.40;;;;;;;;;;5073973;28;20475;-71
2022/04/03 04:11:35;;;;;;;23.60;15.47;;;;;;;;;;5073812;28;20796;-71
2022/04/03 04:14:02;;;;;;;24.37;15.57;;;;;;;;;;5073758;28;20456;-71
2022/04/03 04:16:30;;;;;;;28.90;17.90;;;;;;;;;;5073351;28;20542;-71
2022/04/03 04:18:58;;;;;;;22.57;16.27;;;;;;;;;;5073600;28;20482;-71
2022/04/03 04:21:25;;;;;;;22.27;14.37;;;;;;;;;;5073564;28;20816;-71
2022/04/03 04:23:52;;;;;;;26.93;16.20;;;;;;;;;;5074354;28;20440;-71
2022/04/03 04:26:19;;;;;;;25.20;15.73;;;;;;;;;;5073615;28;20455;-71
2022/04/03 04:28:48;;;;;;;21.60;15.10;;;;;;;;;;5073483;28;20478;-71
2022/04/03 04:31:16;;;;;;;24.50;16.27;;;;;;;;;;5073558;28;20819;-71
2022/04/03 04:33:43;;;;;;;20.23;14.67;;;;;;;;;;5073506;28;20436;-71
2022/04/03 04:36:11;;;;;;;30.20;15.70;;;;;;;;;;5073569;28;20798;-72
2022/04/03 04:38:38;;;;;;;21.23;14.43;;;;;;;;;;5073117;28;20467;-72
2022/04/03 04:41:06;;;;;;;22.23;15.23;;;;;;;;;;5073448;28;20451;-71
2022/04/03 04:43:33;;;;;;;23.70;15.87;;;;;;;;;;5073150;28;20848;-71
2022/04/03 04:46:00;;;;;;;20.90;15.03;;;;;;;;;;5072992;28;20488;-72
2022/04/03 04:48:27;;;;;;;25.33;15.30;;;;;;;;;;5072962;28;20482;-72
2022/04/03 04:50:54;;;;;;;27.40;18.60;;;;;;;;;;5073365;28;20475;-72
2022/04/03 04:53:23;;;;;;;29.73;18.13;;;;;;;;;;5073067;28;20463;-71
2022/04/03 04:55:50;;;;;;;23.60;16.53;;;;;;;;;;5073009;28;20501;-71
2022/04/03 04:58:17;;;;;;;29.57;17.93;;;;;;;;;;5073104;28;20980;-71
2022/04/03 05:00:45;;;;;;;26.10;15.93;;;;;;;;;;5073288;28;20478;-72
2022/04/03 05:03:13;;;;;;;24.07;15.80;;;;;;;;;;5072884;28;20546;-71
2022/04/03 05:05:40;;;;;;;23.90;16.60;;;;;;;;;;5073162;28;20484;-71
2022/04/03 05:08:08;;;;;;;22.60;15.00;;;;;;;;;;5073152;28;20479;-72
2022/04/03 05:10:36;;;;;;;22.47;15.93;;;;;;;;;;5073163;28;20458;-71
2022/04/03 05:13:03;;;;;;;22.53;14.83;;;;;;;;;;5073098;28;20479;-72
2022/04/03 05:15:31;;;;;;;21.37;14.47;;;;;;;;;;5073265;28;20543;-71
2022/04/03 05:17:59;;;;;;;27.30;14.93;;;;;;;;;;5076503;28;20471;-72
2022/04/03 05:20:26;;;;;;;21.00;15.83;;;;;;;;;;5076044;28;20499;-71
2022/04/03 05:22:53;;;;;;;22.97;15.53;;;;;;;;;;5075888;28;20466;-72
2022/04/03 05:25:21;;;;;;;18.20;13.47;;;;;;;;;;5076401;28;20483;-71
2022/04/03 05:27:49;;;;;;;19.40;13.93;;;;;;;;;;5076533;28;20471;-71
2022/04/03 05:30:17;;;;;;;27.33;16.20;;;;;;;;;;5076755;28;20459;-72
2022/04/03 05:32:44;;;;;;;25.73;16.73;;;;;;;;;;5076780;28;20454;-72
2022/04/03 05:35:13;;;;;;;23.10;16.30;;;;;;;;;;5076468;28;20475;-72
2022/04/03 05:37:40;;;;;;;24.37;14.97;;;;;;;;;;5076262;28;20558;-71
2022/04/03 05:40:10;;;;;;;20.67;14.97;;;;;;;;;;5076580;28;20455;-72
2022/04/03 05:42:37;;;;;;;22.50;15.60;;;;;;;;;;5076542;28;20478;-72
2022/04/03 05:45:06;;;;;;;21.80;15.20;;;;;;;;;;5076491;28;20483;-72
2022/04/03 05:47:33;;;;;;;21.37;13.17;;;;;;;;;;5076427;28;20459;-72
2022/04/03 05:50:01;;;;;;;18.23;12.93;;;;;;;;;;5076501;28;20944;-72
2022/04/03 05:52:28;;;;;;;22.97;14.57;;;;;;;;;;5076406;28;20455;-72
2022/04/03 05:54:55;;;;;;;21.60;14.40;;;;;;;;;;5076487;28;20432;-71
2022/04/03 05:57:22;;;;;;;23.90;15.40;;;;;;;;;;5076226;28;20451;-71
2022/04/03 05:59:49;;;;;;;20.83;14.03;;;;;;;;;;5076020;28;20432;-72
2022/04/03 06:02:18;;;;;;;21.37;14.00;;;;;;;;;;5076256;28;20798;-72
2022/04/03 06:04:45;;;;;;;18.93;13.00;;;;;;;;;;5076182;28;20506;-72
2022/04/03 06:07:12;;;;;;;18.43;12.53;;;;;;;;;;5076107;28;20919;-71
2022/04/03 06:09:40;;;;;;;27.03;15.30;;;;;;;;;;5076049;28;20991;-71
2022/04/03 06:12:08;;;;;;;21.90;15.00;;;;;;;;;;5076092;28;20821;-71
2022/04/03 06:14:35;;;;;;;21.37;14.70;;;;;;;;;;5075640;28;20448;-71
2022/04/03 06:17:02;;;;;;;21.40;14.20;;;;;;;;;;5075665;28;20447;-71
2022/04/03 06:19:30;;;;;;;16.13;12.50;;;;;;;;;;5075461;28;20475;-71
2022/04/03 06:21:58;;;;;;;21.50;13.20;;;;;;;;;;5075620;28;20834;-71
2022/04/03 06:24:25;;;;;;;26.90;17.10;;;;;;;;;;5075783;28;20474;-71
2022/04/03 06:26:53;;;;;;;21.00;14.60;;;;;;;;;;5075183;28;20479;-71
2022/04/03 06:29:20;;;;;;;17.83;13.33;;;;;;;;;;5075235;28;20818;-72
2022/04/03 06:31:47;;;;;;;20.67;12.73;;;;;;;;;;5075723;28;20447;-72
2022/04/03 06:34:14;;;;;;;18.67;14.07;;;;;;;;;;5075636;28;20436;-72
2022/04/03 06:36:42;;;;;;;19.23;13.63;;;;;;;;;;5075642;28;20462;-72
2022/04/03 06:39:09;;;;;;;17.53;12.20;;;;;;;;;;5075138;28;20476;-72
2022/04/03 06:41:37;;;;;;;16.23;12.43;;;;;;;;;;5075454;28;20447;-72
2022/04/03 06:44:04;;;;;;;16.07;11.43;;;;;;;;;;5075386;28;20456;-72
2022/04/03 06:46:32;;;;;;;17.53;11.10;;;;;;;;;;5074983;28;20483;-71
2022/04/03 06:48:59;;;;;;;16.27;12.33;;;;;;;;;;5075054;28;20472;-71
2022/04/03 06:51:26;;;;;;;13.87;9.53;;;;;;;;;;5075332;28;20455;-72
2022/04/03 06:53:55;;;;;;;11.13;9.43;;;;;;;;;;5075368;28;20463;-71
2022/04/03 06:56:22;;;;;;;12.97;9.23;;;;;;;;;;5075251;28;20787;-72
2022/04/03 06:58:49;;;;;;;14.40;9.80;;;;;;;;;;5075126;28;20495;-72
2022/04/03 07:01:16;;;;;;;14.73;10.30;;;;;;;;;;5075075;28;20482;-72
2022/04/03 07:03:45;;;;;;;13.50;10.67;;;;;;;;;;5075115;28;20432;-73
2022/04/03 07:06:12;;;;;;;11.73;8.47;;;;;;;;;;5074681;28;20490;-72
2022/04/03 07:08:41;;;;;;;10.20;8.97;;;;;;;;;;5074900;28;20478;-72
2022/04/03 07:11:09;;;;;;;15.37;8.30;;;;;;;;;;5074898;28;20580;-72
2022/04/03 07:13:36;;;;;;;13.07;10.10;;;;;;;;;;5074826;28;20432;-72
2022/04/03 07:16:05;;;;;;;13.57;9.30;;;;;;;;;;5074775;28;20451;-72
2022/04/03 07:18:32;;;;;;;15.87;10.70;;;;;;;;;;5075199;28;20996;-72
2022/04/03 07:20:59;;;;;;;13.07;9.93;;;;;;;;;;5074387;28;20451;-72
2022/04/03 07:23:26;;;;;;;15.40;10.00;;;;;;;;;;5074325;28;20987;-72
2022/04/03 07:25:53;;;;;;;12.87;8.97;;;;;;;;;;5074530;28;20491;-72
2022/04/03 07:28:21;;;;;;;14.13;11.13;;;;;;;;;;5074464;28;20471;-72
2022/04/03 07:30:48;;;;;;;14.03;11.20;;;;;;;;;;5074471;28;20505;-72
2022/04/03 07:33:20;;;;;;;12.33;9.53;;;;;;;;;;5074439;28;20458;-72
2022/04/03 07:35:47;;;;;;;14.10;10.07;;;;;;;;;;5074363;28;20432;-72
2022/04/03 07:38:15;;;;;;;12.23;9.90;;;;;;;;;;5073765;28;20478;-72
2022/04/03 07:40:42;;;;;;;14.20;11.30;;;;;;;;;;5074293;28;20811;-71
2022/04/03 07:43:09;;;;;;;19.33;11.53;;;;;;;;;;5074219;28;20456;-71
2022/04/03 07:45:38;;;;;;;15.93;9.30;;;;;;;;;;5074171;28;20467;-71
2022/04/03 07:48:05;;;;;;;11.63;8.67;;;;;;;;;;5074031;28;20468;-72
2022/04/03 07:50:32;;;;;;;9.50;8.37;;;;;;;;;;5074207;28;20435;-71
2022/04/03 07:52:59;;;;;;;12.83;10.17;;;;;;;;;;5073883;28;20451;-72
2022/04/03 07:55:26;;;;;;;11.00;8.40;;;;;;;;;;5073957;28;20436;-71
2022/04/03 07:57:54;;;;;;;10.77;9.27;;;;;;;;;;5073890;28;20969;-71
2022/04/03 08:00:21;;;;;;;12.40;9.53;;;;;;;;;;5073617;28;20542;-72
2022/04/03 08:02:49;;;;;;;14.33;10.33;;;;;;;;;;5073947;28;20964;-72
2022/04/03 08:05:16;;;;;;;10.80;9.07;;;;;;;;;;5073740;28;20455;-73
2022/04/03 08:07:45;;;;;;;10.63;9.37;;;;;;;;;;5073714;28;20495;-72
2022/04/03 08:10:13;;;;;;;11.53;7.50;;;;;;;;;;5073994;28;20455;-73
2022/04/03 08:12:40;;;;;;;13.37;9.23;;;;;;;;;;5074037;28;20866;-73
2022/04/03 08:15:08;;;;;;;12.20;10.10;;;;;;;;;;5073719;28;20460;-73
2022/04/03 08:17:38;;;;;;;20.30;9.70;;;;;;;;;;5074028;28;20458;-73
2022/04/03 08:20:08;;;;;;;13.63;8.83;;;;;;;;;;5074019;28;20467;-73
2022/04/03 08:22:35;;;;;;;11.70;7.70;;;;;;;;;;5073362;28;20887;-72
2022/04/03 08:25:02;;;;;;;9.73;8.40;;;;;;;;;;5073563;28;20452;-72
2022/04/03 08:27:42;;;;;;;9.63;7.70;;;;;;;;;;5073466;28;20487;-72
2022/04/03 08:30:10;;;;;;;11.43;7.50;;;;;;;;;;5073610;28;20447;-72
2022/04/03 08:32:37;;;;;;;11.93;8.53;;;;;;;;;;5073550;28;20467;-72
2022/04/03 08:35:04;;;;;;;14.70;8.77;;;;;;;;;;5073138;28;20451;-72
2022/04/03 08:37:32;;;;;;;12.73;8.53;;;;;;;;;;5073085;28;20451;-71
2022/04/03 08:40:00;;;;;;;12.63;8.97;;;;;;;;;;5073815;28;20470;-72
2022/04/03 08:42:28;;;;;;;9.83;8.40;;;;;;;;;;5073141;28;20456;-71
2022/04/03 08:44:55;;;;;;;12.60;8.80;;;;;;;;;;5073369;28;20463;-72
2022/04/03 08:47:22;;;;;;;13.17;9.60;;;;;;;;;;5073220;28;21000;-71
2022/04/03 08:49:49;;;;;;;12.57;8.17;;;;;;;;;;5073119;28;20467;-71
2022/04/03 08:52:16;;;;;;;17.60;9.50;;;;;;;;;;5072491;28;20456;-70
2022/04/03 08:54:45;;;;;;;11.00;9.07;;;;;;;;;;5073255;28;20801;-71
2022/04/03 08:57:12;;;;;;;11.47;9.97;;;;;;;;;;5073159;28;20451;-71
2022/04/03 08:59:39;;;;;;;11.70;8.30;;;;;;;;;;5073247;28;20475;-71
2022/04/03 09:02:06;;;;;;;11.23;8.80;;;;;;;;;;5072905;28;20448;-71
2022/04/03 09:04:33;;;;;;;15.10;8.90;;;;;;;;;;5072924;28;20447;-72
2022/04/03 09:07:01;;;;;;;10.63;8.80;;;;;;;;;;5072818;28;20487;-72
2022/04/03 09:09:29;;;;;;;12.80;7.80;;;;;;;;;;5073119;28;20472;-72
2022/04/03 09:12:10;;;;;;;7.50;6.70;;;;;;;;;;5072791;28;20447;-72
2022/04/03 09:14:45;;;;;;;10.17;7.93;;;;;;;;;;5072971;28;20474;-71
2022/04/03 09:17:12;;;;;;;9.57;7.63;;;;;;;;;;5072710;28;20432;-71
2022/04/03 09:19:39;;;;;;;10.93;8.17;;;;;;;;;;5072913;28;20472;-71
2022/04/03 09:22:06;;;;;;;10.47;9.37;;;;;;;;;;5072552;28;20470;-71
2022/04/03 09:24:36;;;;;;;13.93;9.27;;;;;;;;;;5072890;28;20821;-71
2022/04/03 09:27:04;;;;;;;13.30;10.10;;;;;;;;;;5072708;28;20484;-71
2022/04/03 09:29:32;;;;;;;12.70;8.97;;;;;;;;;;5072823;28;20468;-72
2022/04/03 09:32:00;;;;;;;10.43;7.90;;;;;;;;;;5072574;28;20452;-72
2022/04/03 09:34:28;;;;;;;8.00;7.13;;;;;;;;;;5072661;28;20432;-72
2022/04/03 09:36:59;;;;;;;10.97;8.10;;;;;;;;;;5072829;28;20456;-72
2022/04/03 09:39:27;;;;;;;9.60;7.80;;;;;;;;;;5072443;28;20464;-72
2022/04/03 09:41:58;;;;;;;11.40;8.10;;;;;;;;;;5072808;28;20455;-72
2022/04/03 09:44:27;;;;;;;11.83;8.30;;;;;;;;;;5072456;28;20455;-73
2022/04/03 09:47:12;;;;;;;11.10;8.47;;;;;;;;;;5072737;28;21051;-73
2022/04/03 09:49:41;;;;;;;11.43;7.53;;;;;;;;;;5072660;28;20467;-73
2022/04/03 09:52:09;;;;;;;11.10;8.90;;;;;;;;;;5072618;28;20448;-72
2022/04/03 09:54:38;;;;;;;11.03;9.47;;;;;;;;;;5072776;28;20467;-72
2022/04/03 09:57:21;;;;;;;14.13;9.70;;;;;;;;;;5072359;28;20463;-72
2022/04/03 09:59:48;;;;;;;55.70;32.27;;;;;;;;;;5072486;28;20976;-72
2022/04/03 10:02:15;;;;;;;14.10;11.03;;;;;;;;;;5072654;28;20462;-72
2022/04/03 10:04:44;;;;;;;14.13;10.33;;;;;;;;;;5075882;28;20432;-72
2022/04/03 10:07:13;;;;;;;13.27;9.47;;;;;;;;;;5076003;28;20991;-72
2022/04/03 10:09:44;;;;;;;12.50;9.57;;;;;;;;;;5076006;28;20475;-72
2022/04/03 10:12:12;;;;;;;18.13;12.70;;;;;;;;;;5075995;28;20439;-72
2022/04/03 10:14:40;;;;;;;12.80;9.80;;;;;;;;;;5075955;28;20915;-72
2022/04/03 10:17:07;;;;;;;9.87;8.57;;;;;;;;;;5075958;28;20452;-72
2022/04/03 10:19:35;;;;;;;8.77;7.70;;;;;;;;;;5075450;28;20471;-72
2022/04/03 10:22:05;;;;;;;18.27;11.30;;;;;;;;;;5075364;28;20463;-69
2022/04/03 10:24:32;;;;;;;12.23;8.20;;;;;;;;;;5075340;28;20459;-69
2022/04/03 10:27:00;;;;;;;9.70;7.93;;;;;;;;;;5075201;28;20487;-69
2022/04/03 10:29:31;;;;;;;14.70;8.93;;;;;;;;;;5075233;28;20471;-70
2022/04/03 10:31:59;;;;;;;13.40;7.50;;;;;;;;;;5075230;28;20447;-70
2022/04/03 10:34:27;;;;;;;10.23;8.70;;;;;;;;;;5075055;28;20509;-69
2022/04/03 10:36:54;;;;;;;9.13;8.00;;;;;;;;;;5074725;28;20971;-71
2022/04/03 10:39:26;;;;;;;8.97;7.13;;;;;;;;;;5074955;28;20475;-69
2022/04/03 10:42:08;;;;;;;8.93;7.90;;;;;;;;;;5074460;28;20513;-71
2022/04/03 10:44:35;;;;;;;8.10;7.30;;;;;;;;;;5074891;28;20976;-69
2022/04/03 10:47:21;;;;;;;9.63;7.67;;;;;;;;;;5074939;28;20836;-69
2022/04/03 10:49:50;;;;;;;8.47;7.33;;;;;;;;;;5074936;28;20455;-70
2022/04/03 10:52:25;;;;;;;12.23;8.00;;;;;;;;;;5074562;28;20460;-70
2022/04/03 10:54:54;;;;;;;14.13;7.50;;;;;;;;;;5074590;28;20451;-69
2022/04/03 10:57:37;;;;;;;21.93;12.83;;;;;;;;;;5074944;28;20475;-69
2022/04/03 11:00:23;;;;;;;11.40;8.30;;;;;;;;;;5074731;28;20455;-69
2022/04/03 11:02:51;;;;;;;9.63;7.10;;;;;;;;;;5074538;28;20447;-69
2022/04/03 11:05:36;;;;;;;11.50;7.90;;;;;;;;;;5074446;28;20451;-69
2022/04/03 11:08:17;;;;;;;11.30;7.30;;;;;;;;;;5074508;28;20492;-69
2022/04/03 11:10:49;;;;;;;10.87;7.87;;;;;;;;;;5074596;28;21020;-69
2022/04/03 11:13:16;;;;;;;9.77;7.80;;;;;;;;;;5073619;28;20446;-69
2022/04/03 11:15:51;;;;;;;7.70;6.57;;;;;;;;;;5074261;28;20957;-69
2022/04/03 11:18:28;;;;;;;10.80;8.00;;;;;;;;;;5073971;28;20976;-69
2022/04/03 11:21:08;;;;;;;9.13;6.77;;;;;;;;;;5074353;28;20458;-69
2022/04/03 11:23:36;;;;;;;9.30;7.80;;;;;;;;;;5074046;28;20955;-69
2022/04/03 11:26:05;;;;;;;10.50;8.80;;;;;;;;;;5074206;28;20443;-70
2022/04/03 11:28:34;;;;;;;10.50;8.30;;;;;;;;;;5074016;28;20491;-70
2022/04/03 11:31:01;;;;;;;8.33;7.17;;;;;;;;;;5074137;28;20552;-69
2022/04/03 11:33:29;;;;;;;9.30;8.33;;;;;;;;;;5073948;28;20450;-70
2022/04/03 11:35:56;;;;;;;9.10;7.53;;;;;;;;;;5074098;28;20447;-69
2022/04/03 11:38:23;;;;;;;10.33;7.20;;;;;;;;;;5073939;28;20475;-70
2022/04/03 11:40:50;;;;;;;12.40;8.70;;;;;;;;;;5073918;28;20452;-69
2022/04/03 11:43:20;;;;;;;7.40;6.53;;;;;;;;;;5073946;28;20933;-69
2022/04/03 11:45:54;;;;;;;8.00;6.57;;;;;;;;;;5073747;28;20452;-70
2022/04/03 11:48:21;;;;;;;10.90;8.30;;;;;;;;;;5073343;28;20498;-69
2022/04/03 11:50:51;;;;;;;8.33;6.47;;;;;;;;;;5073654;28;20451;-69
2022/04/03 11:53:18;;;;;;;8.03;7.20;;;;;;;;;;5072655;28;20517;-69
2022/04/03 11:55:45;;;;;;;6.90;4.97;;;;;;;;;;5073665;28;20796;-69
2022/04/03 11:58:13;;;;;;;8.80;7.03;;;;;;;;;;5073489;28;20882;-69
2022/04/03 12:00:47;;;;;;;7.90;6.43;;;;;;;;;;5073611;28;20456;-69
2022/04/03 12:03:14;;;;;;;10.63;6.20;;;;;;;;;;5073410;28;20940;-69
2022/04/03 12:05:42;;;;;;;10.53;8.47;;;;;;;;;;5073254;28;20874;-69
2022/04/03 12:08:09;;;;;;;9.33;6.80;;;;;;;;;;5073303;28;20502;-69
2022/04/03 12:10:37;;;;;;;9.77;6.77;;;;;;;;;;5073660;28;20964;-69
2022/04/03 12:13:08;;;;;;;9.50;6.77;;;;;;;;;;5073572;28;20505;-69
2022/04/03 12:15:36;;;;;;;10.20;6.67;;;;;;;;;;5073220;28;20538;-69
2022/04/03 12:18:06;;;;;;;7.60;6.50;;;;;;;;;;5073108;28;20480;-70
2022/04/03 12:20:36;;;;;;;10.63;7.70;;;;;;;;;;5073542;28;20467;-70
2022/04/03 12:23:08;;;;;;;8.67;6.60;;;;;;;;;;5072640;28;20839;-68
2022/04/03 12:25:36;;;;;;;8.80;7.90;;;;;;;;;;5072350;28;20525;-69
2022/04/03 12:28:03;;;;;;;10.57;6.80;;;;;;;;;;5073111;28;20496;-69
2022/04/03 12:30:31;;;;;;;7.70;6.90;;;;;;;;;;5073245;28;20455;-70
2022/04/03 12:32:58;;;;;;;6.50;5.70;;;;;;;;;;5072353;28;20466;-70
2022/04/03 12:35:29;;;;;;;20.07;15.13;;;;;;;;;;5073107;28;20554;-69
2022/04/03 12:37:59;;;;;;;11.73;8.80;;;;;;;;;;5073112;28;20555;-70
2022/04/03 12:40:26;;;;;;;7.33;6.63;;;;;;;;;;5073131;28;20452;-70
2022/04/03 12:43:01;;;;;;;23.10;19.40;;;;;;;;;;5072991;28;20447;-69
2022/04/03 12:45:28;;;;;;;9.90;6.23;;;;;;;;;;5073019;28;20455;-69
2022/04/03 12:47:59;;;;;;;6.80;6.00;;;;;;;;;;5072949;28;20492;-69
2022/04/03 12:50:34;;;;;;;11.53;9.00;;;;;;;;;;5073239;28;20815;-69
2022/04/03 12:53:02;;;;;;;9.53;7.30;;;;;;;;;;5072381;28;20925;-69
2022/04/03 12:55:41;;;;;;;7.17;6.23;;;;;;;;;;5072736;28;20452;-69
2022/04/03 12:58:25;;;;;;;9.57;7.70;;;;;;;;;;5072844;28;20475;-69
2022/04/03 13:00:54;;;;;;;8.83;7.70;;;;;;;;;;5072783;28;20532;-69
2022/04/03 13:03:31;;;;;;;13.80;8.20;;;;;;;;;;5072426;28;20459;-69
2022/04/03 13:06:00;;;;;;;7.67;5.93;;;;;;;;;;5072851;28;20489;-69
2022/04/03 13:08:27;;;;;;;10.00;6.60;;;;;;;;;;5072710;28;20911;-69
2022/04/03 13:10:55;;;;;;;8.10;6.70;;;;;;;;;;5072958;28;21006;-69
2022/04/03 13:13:23;;;;;;;9.13;6.50;;;;;;;;;;5072877;28;20448;-69
2022/04/03 13:15:50;;;;;;;6.17;4.80;;;;;;;;;;5072473;28;20462;-69
2022/04/03 13:18:18;;;;;;;7.03;6.20;;;;;;;;;;5072529;28;20517;-69
2022/04/03 13:20:48;;;;;;;10.20;6.73;;;;;;;;;;5072728;28;20456;-69
2022/04/03 13:23:17;;;;;;;9.07;6.63;;;;;;;;;;5072484;28;20855;-69
2022/04/03 13:25:44;;;;;;;7.47;6.40;;;;;;;;;;5072344;28;20797;-69
2022/04/03 13:28:11;;;;;;;8.77;7.20;;;;;;;;;;5072409;28;21010;-69
2022/04/03 13:30:38;;;;;;;6.40;5.73;;;;;;;;;;5072902;28;20454;-69
2022/04/03 13:33:06;;;;;;;10.53;6.60;;;;;;;;;;5072453;28;20822;-70
2022/04/03 13:35:37;;;;;;;14.53;10.77;;;;;;;;;;5072449;28;20956;-69
2022/04/03 13:38:05;;;;;;;11.90;8.07;;;;;;;;;;5074987;28;20468;-69
2022/04/03 13:40:33;;;;;;;8.50;5.93;;;;;;;;;;5076283;28;20535;-69
2022/04/03 13:43:00;;;;;;;8.73;6.00;;;;;;;;;;5076103;28;20454;-69
2022/04/03 13:48:09;;;;;;;9.13;8.20;;;;;;;;;;5075229;28;20564;-69
2022/04/03 13:50:36;;;;;;;10.50;8.67;;;;;;;;;;5076300;28;20455;-69
2022/04/03 13:53:03;;;;;;;8.13;6.60;;;;;;;;;;5075660;28;20980;-69
2022/04/03 13:55:31;;;;;;;7.40;6.03;;;;;;;;;;5076094;28;20451;-69
2022/04/03 13:57:59;;;;;;;17.37;15.50;;;;;;;;;;5075685;28;20815;-69
2022/04/03 14:00:26;;;;;;;7.73;6.43;;;;;;;;;;5075862;28;20458;-69
2022/04/03 14:02:55;;;;;;;10.23;7.97;;;;;;;;;;5075759;28;20459;-69
2022/04/03 14:05:22;;;;;;;38.20;31.03;;;;;;;;;;5075625;28;20451;-69
2022/04/03 14:07:49;;;;;;;15.03;10.10;;;;;;;;;;5075776;28;20495;-69
2022/04/03 14:10:16;;;;;;;8.67;6.97;;;;;;;;;;5075671;28;20451;-69
2022/04/03 14:12:43;;;;;;;5.97;5.23;;;;;;;;;;5075681;28;20488;-69
2022/04/03 14:15:13;;;;;;;19.83;8.80;;;;;;;;;;5075430;28;20456;-70
2022/04/03 14:17:40;;;;;;;5.30;4.80;;;;;;;;;;5075491;28;20466;-69
2022/04/03 14:20:09;;;;;;;24.37;18.23;;;;;;;;;;5075513;28;20459;-69
2022/04/03 14:22:36;;;;;;;10.67;9.53;;;;;;;;;;5075375;28;20468;-69
2022/04/03 14:25:05;;;;;;;14.53;8.80;;;;;;;;;;5075233;28;20925;-69
2022/04/03 14:27:32;;;;;;;15.17;7.13;;;;;;;;;;5074884;28;20900;-69
2022/04/03 14:30:03;;;;;;;7.90;6.00;;;;;;;;;;5075368;28;20460;-69
2022/04/03 14:32:32;;;;;;;7.97;6.30;;;;;;;;;;5075489;28;20933;-69
2022/04/03 14:34:59;;;;;;;7.97;5.93;;;;;;;;;;5075069;28;20448;-69